Elmsdale, Canada
Current Conditions -  °F | °C
As of 3:00 PM on Thursday 23 Oct 2014 (Local Time) from CYHZ Reporting Station
Light Rain Light Rain  
Wind Chill: 52°   Ceiling: 1500
Heat Index: 52°   Visibility: 3mi
Dew Point: 50°   Wind: 14mph
Humidity: 94%   Direction: 80°E
Pressure: 29.94"   Gusts: 23mph
Location:  44.97°N, 63.52°W
Report Text: CYHZ 231800Z 08012G20KT 3SM -RA BR SCT008 BKN015 11/10 A2994 RMK SF4NS3 SLP141
Loading
Personal Weather Stations






























Interactive Weather Map
Tropical Storm Tracking
New forecast layout! Learn more

10-Day Weather Forecast

Advertisements
Track Severe Weather on mobile